Time;durP1;ratioP1;P1;durP2;ratioP2;P2;SDS_P1;SDS_P2;PMS_P1;PMS_P2;Temp;Humidity;BMP_temperature;BMP_pressure;BME280_temperature;BME280_humidity;BME280_pressure;Samples;Min_cycle;Max_cycle;Signal;HPM_P1;HPM_P2
2022/07/25 00:00:39;;;;;;;5.60;3.85;;;23.40;99.90;;;;;;3058412;19;20031;-69
2022/07/25 00:01:43;;;;;;;7.15;3.55;;;23.30;99.90;;;;;;3058190;19;20013;-69
2022/07/25 00:02:44;;;;;;;4.05;3.40;;;23.10;99.90;;;;;;3057992;19;20384;-69
2022/07/25 00:03:48;;;;;;;5.80;4.07;;;23.20;99.90;;;;;;3057604;19;20014;-69
2022/07/25 00:04:50;;;;;;;11.02;4.00;;;23.10;99.90;;;;;;3057786;19;20018;-69
2022/07/25 00:05:54;;;;;;;6.25;4.22;;;23.10;99.90;;;;;;3058218;19;20010;-70
2022/07/25 00:06:55;;;;;;;6.43;4.47;;;23.20;99.90;;;;;;3057791;19;20014;-69
2022/07/25 00:07:59;;;;;;;4.63;3.83;;;23.20;99.90;;;;;;3057506;19;20019;-71
2022/07/25 00:09:00;;;;;;;8.02;4.13;;;23.10;99.90;;;;;;3057490;19;20018;-69
2022/07/25 00:10:08;;;;;;;5.32;4.32;;;23.00;99.90;;;;;;3058857;19;20018;-69
2022/07/25 00:11:09;;;;;;;6.32;4.00;;;23.00;99.90;;;;;;3057812;19;20027;-69
2022/07/25 00:12:13;;;;;;;8.25;4.65;;;23.10;99.90;;;;;;3058377;19;20005;-69
2022/07/25 00:13:14;;;;;;;7.20;5.05;;;23.00;99.90;;;;;;3058569;19;20017;-69
2022/07/25 00:14:18;;;;;;;6.53;4.22;;;23.00;99.90;;;;;;3060682;19;20079;-69
2022/07/25 00:15:19;;;;;;;5.85;4.30;;;23.20;99.90;;;;;;3061032;19;20021;-70
2022/07/25 00:16:23;;;;;;;7.97;4.65;;;22.80;99.90;;;;;;3061788;19;20021;-69
2022/07/25 00:17:25;;;;;;;6.32;4.50;;;22.90;99.90;;;;;;3060207;19;20488;-69
2022/07/25 00:18:28;;;;;;;5.22;4.63;;;22.80;99.90;;;;;;3060529;19;20011;-70
2022/07/25 00:19:30;;;;;;;6.20;4.57;;;22.90;99.90;;;;;;3060781;19;20109;-69
2022/07/25 00:20:34;;;;;;;6.63;5.10;;;23.10;99.90;;;;;;3061290;19;20486;-69
2022/07/25 00:21:35;;;;;;;6.32;4.68;;;22.90;99.90;;;;;;3060862;19;20475;-69
2022/07/25 00:22:39;;;;;;;6.38;4.53;;;22.90;99.90;;;;;;3061162;19;20043;-69
2022/07/25 00:23:40;;;;;;;6.38;4.80;;;23.00;99.90;;;;;;3061189;19;20021;-69
2022/07/25 00:24:44;;;;;;;8.95;5.18;;;23.10;99.90;;;;;;3059529;19;20022;-69
2022/07/25 00:25:48;;;;;;;6.60;4.47;;;22.90;99.90;;;;;;3061253;19;20014;-69
2022/07/25 00:26:52;;;;;;;7.25;4.65;;;23.00;99.90;;;;;;3061755;19;20032;-69
2022/07/25 00:27:53;;;;;;;5.97;5.00;;;23.00;99.90;;;;;;3059912;19;20018;-70
2022/07/25 00:28:57;;;;;;;5.28;4.57;;;22.80;99.90;;;;;;3061180;19;20653;-69
2022/07/25 00:29:58;;;;;;;6.38;4.95;;;22.80;99.90;;;;;;3060956;19;20018;-69
2022/07/25 00:31:02;;;;;;;7.18;5.32;;;22.80;99.90;;;;;;3061082;19;20002;-69
2022/07/25 00:32:04;;;;;;;6.05;4.47;;;22.80;99.90;;;;;;3059495;19;20038;-69
2022/07/25 00:33:08;;;;;;;6.22;4.80;;;22.80;99.90;;;;;;3060968;19;20018;-69
2022/07/25 00:34:10;;;;;;;12.88;5.10;;;22.80;99.90;;;;;;3059937;19;20042;-69
2022/07/25 00:35:13;;;;;;;7.88;5.28;;;22.70;99.90;;;;;;3060150;19;19998;-69
2022/07/25 00:36:15;;;;;;;7.43;5.03;;;22.90;99.90;;;;;;3061976;19;20384;-69
2022/07/25 00:37:19;;;;;;;7.32;5.05;;;22.70;99.90;;;;;;3060370;19;20377;-70
2022/07/25 00:38:20;;;;;;;7.22;5.50;;;22.80;99.90;;;;;;3062140;19;20015;-69
2022/07/25 00:39:24;;;;;;;7.50;5.20;;;22.70;99.90;;;;;;3060385;19;20006;-70
2022/07/25 00:40:25;;;;;;;7.20;5.63;;;22.70;99.90;;;;;;3060416;19;20021;-69
2022/07/25 00:41:32;;;;;;;7.82;5.63;;;22.70;99.90;;;;;;3061136;19;19999;-69
2022/07/25 00:42:34;;;;;;;9.13;6.10;;;22.70;99.90;;;;;;3060543;19;20472;-69
2022/07/25 00:43:37;;;;;;;;;;;22.70;99.90;;;;;;3061416;19;20487;-70
2022/07/25 00:44:39;;;;;;;8.52;5.78;;;22.50;99.90;;;;;;3059804;19;19926;-69
2022/07/25 00:45:42;;;;;;;7.68;6.28;;;22.60;99.90;;;;;;3060856;19;20011;-69
2022/07/25 00:46:44;;;;;;;8.63;5.57;;;22.60;99.90;;;;;;3061261;19;20015;-70
2022/07/25 00:47:48;;;;;;;9.43;6.35;;;22.50;99.90;;;;;;3060455;19;20014;-69
2022/07/25 00:48:49;;;;;;;9.57;6.00;;;22.40;99.90;;;;;;3060647;19;20364;-69
2022/07/25 00:49:53;;;;;;;7.70;5.40;;;22.50;99.90;;;;;;3059697;19;20006;-69
2022/07/25 00:50:55;;;;;;;7.53;6.20;;;22.40;99.90;;;;;;3060435;19;20364;-70
2022/07/25 00:51:59;;;;;;;;;;;22.40;99.90;;;;;;3059684;19;20011;-69
2022/07/25 00:53:01;;;;;;;10.95;7.18;;;22.50;99.90;;;;;;3060451;19;19911;-70
2022/07/25 00:54:05;;;;;;;8.73;7.15;;;22.40;99.90;;;;;;3060307;19;20002;-69
2022/07/25 00:55:07;;;;;;;9.93;6.40;;;22.50;99.90;;;;;;3060233;19;20356;-69
2022/07/25 00:56:11;;;;;;;11.82;7.47;;;22.40;99.90;;;;;;3060443;19;20031;-69
2022/07/25 00:57:15;;;;;;;13.13;6.97;;;22.50;99.90;;;;;;3059428;19;20015;-69
2022/07/25 00:58:19;;;;;;;9.18;7.15;;;22.40;99.90;;;;;;3060612;19;20002;-69
2022/07/25 00:59:20;;;;;;;10.07;7.22;;;22.40;99.90;;;;;;3059688;19;20021;-70
2022/07/25 01:00:24;;;;;;;12.15;6.95;;;22.30;99.90;;;;;;3059940;19;20082;-70
2022/07/25 01:01:26;;;;;;;13.27;7.80;;;22.30;99.90;;;;;;3060345;19;20014;-69
2022/07/25 01:02:30;;;;;;;9.18;7.20;;;22.40;99.90;;;;;;3060693;19;20010;-69
2022/07/25 01:03:32;;;;;;;9.75;7.50;;;22.40;99.90;;;;;;3060433;19;20007;-71
2022/07/25 01:04:36;;;;;;;10.50;7.20;;;22.30;99.90;;;;;;3060837;19;20003;-70
2022/07/25 01:05:37;;;;;;;8.35;7.45;;;22.40;99.90;;;;;;3060368;19;20398;-69
2022/07/25 01:06:41;;;;;;;10.70;7.95;;;22.30;99.90;;;;;;3060588;19;20467;-69
2022/07/25 01:07:42;;;;;;;10.63;8.10;;;22.20;99.90;;;;;;3060582;19;20014;-70
2022/07/25 01:08:46;;;;;;;10.05;7.50;;;22.30;99.90;;;;;;3060800;19;20014;-69
2022/07/25 01:09:48;;;;;;;9.02;7.60;;;22.30;99.90;;;;;;3060123;19;20359;-69
2022/07/25 01:10:52;;;;;;;10.40;7.72;;;22.30;99.90;;;;;;3060666;19;20014;-69
2022/07/25 01:11:53;;;;;;;8.50;7.40;;;22.20;99.90;;;;;;3059556;19;20022;-69
2022/07/25 01:13:00;;;;;;;9.63;7.65;;;22.40;99.90;;;;;;3060512;19;20038;-69
2022/07/25 01:14:02;;;;;;;12.70;8.07;;;22.20;99.90;;;;;;3060227;19;20010;-70
2022/07/25 01:15:07;;;;;;;10.65;8.02;;;22.30;99.90;;;;;;3062042;19;20011;-69
2022/07/25 01:16:08;;;;;;;10.68;8.50;;;22.30;99.90;;;;;;3060219;19;20010;-70
2022/07/25 01:17:12;;;;;;;12.75;9.70;;;22.30;99.90;;;;;;3058303;19;20047;-69
2022/07/25 01:18:13;;;;;;;12.95;9.13;;;22.40;99.90;;;;;;3060331;19;20495;-69
2022/07/25 01:19:17;;;;;;;11.50;9.02;;;22.10;99.90;;;;;;3059522;19;20033;-69
2022/07/25 01:20:23;;;;;;;12.50;9.00;;;22.30;99.90;;;;;;3059976;19;20002;-69
2022/07/25 01:21:27;;;;;;;11.95;9.13;;;22.10;99.90;;;;;;3060235;19;20015;-70
2022/07/25 01:22:28;;;;;;;13.13;8.48;;;22.10;99.90;;;;;;3060371;19;20018;-69
2022/07/25 01:23:32;;;;;;;11.93;9.35;;;22.00;99.90;;;;;;3056357;19;20022;-69
2022/07/25 01:24:34;;;;;;;12.55;9.20;;;22.10;99.90;;;;;;3059335;19;20022;-69
2022/07/25 01:25:38;;;;;;;11.50;9.13;;;22.10;99.90;;;;;;3060316;19;20002;-69
2022/07/25 01:26:39;;;;;;;12.25;9.30;;;22.00;99.90;;;;;;3060221;19;20011;-69
2022/07/25 01:27:45;;;;;;;12.73;9.25;;;22.10;99.90;;;;;;3059375;19;20468;-70
2022/07/25 01:28:46;;;;;;;12.40;9.73;;;22.00;99.90;;;;;;3059998;19;20119;-69
2022/07/25 01:29:50;;;;;;;11.02;9.80;;;21.80;99.90;;;;;;3059540;19;20019;-69
2022/07/25 01:30:51;;;;;;;13.02;9.63;;;22.00;99.90;;;;;;3060122;19;20010;-69
2022/07/25 01:31:55;;;;;;;17.38;10.32;;;22.10;99.90;;;;;;3056290;19;20015;-70
2022/07/25 01:32:56;;;;;;;14.02;9.68;;;22.00;99.90;;;;;;3060238;19;20006;-69
2022/07/25 01:34:00;;;;;;;11.45;9.38;;;21.80;99.90;;;;;;3059626;19;20475;-69
2022/07/25 01:35:02;;;;;;;13.18;9.73;;;21.90;99.90;;;;;;3060212;19;20619;-69
2022/07/25 01:36:09;;;;;;;11.52;9.40;;;21.90;99.90;;;;;;3058104;19;20018;-69
2022/07/25 01:37:11;;;;;;;12.07;10.32;;;21.90;99.90;;;;;;3058492;19;20031;-70
2022/07/25 01:38:15;;;;;;;13.75;9.65;;;21.80;99.90;;;;;;3059203;19;20014;-69
2022/07/25 01:39:16;;;;;;;12.80;9.88;;;21.90;99.90;;;;;;3059194;19;20018;-69
2022/07/25 01:40:20;;;;;;;13.25;9.75;;;21.70;99.90;;;;;;3060708;19;20715;-69
2022/07/25 01:41:21;;;;;;;13.45;10.10;;;21.80;99.90;;;;;;3059892;19;20030;-69
2022/07/25 01:42:25;;;;;;;14.30;10.45;;;21.80;99.90;;;;;;3059977;19;20027;-69
2022/07/25 01:43:27;;;;;;;13.98;10.18;;;21.80;99.90;;;;;;3060411;19;20395;-69
2022/07/25 01:44:31;;;;;;;14.10;10.50;;;21.70;99.90;;;;;;3059798;19;20372;-70
2022/07/25 01:45:32;;;;;;;15.65;9.75;;;21.70;99.90;;;;;;3059995;19;20480;-69
2022/07/25 01:46:36;;;;;;;12.10;10.18;;;21.80;99.90;;;;;;3059954;19;20003;-70
2022/07/25 01:47:37;;;;;;;13.25;10.60;;;21.80;99.90;;;;;;3059786;19;20491;-69
2022/07/25 01:48:42;;;;;;;17.55;10.43;;;21.60;99.90;;;;;;3059070;19;20381;-69
2022/07/25 01:49:44;;;;;;;14.63;11.00;;;21.50;99.90;;;;;;3060390;19;20019;-69
2022/07/25 01:50:47;;;;;;;14.30;10.25;;;21.80;99.90;;;;;;3060145;19;20031;-69
2022/07/25 01:51:51;;;;;;;13.93;10.23;;;21.60;99.90;;;;;;3059611;19;20471;-69
2022/07/25 01:52:55;;;;;;;20.40;11.73;;;21.70;99.90;;;;;;3059876;19;20014;-69
2022/07/25 01:53:56;;;;;;;13.75;11.35;;;21.70;99.90;;;;;;3059958;19;20555;-69
2022/07/25 01:55:01;;;;;;;12.23;10.18;;;21.60;99.90;;;;;;3059694;19;20031;-69
2022/07/25 01:56:03;;;;;;;14.25;10.82;;;21.60;99.90;;;;;;3060504;19;20082;-69
2022/07/25 01:57:08;;;;;;;14.30;10.70;;;21.60;99.90;;;;;;3058476;19;19998;-69
2022/07/25 01:58:09;;;;;;;14.25;10.25;;;21.50;99.90;;;;;;3061783;19;20397;-69
2022/07/25 01:59:13;;;;;;;13.15;10.65;;;21.40;99.90;;;;;;3058066;19;20026;-69
2022/07/25 02:00:15;;;;;;;14.70;11.20;;;21.60;99.90;;;;;;3060135;19;20015;-69
2022/07/25 02:01:19;;;;;;;12.73;11.00;;;21.60;99.90;;;;;;3059508;19;20010;-69
2022/07/25 02:02:20;;;;;;;15.88;10.82;;;21.50;99.90;;;;;;3060406;19;20038;-70
2022/07/25 02:03:34;;;;;;;14.23;10.38;;;21.60;99.90;;;;;;3059457;19;20018;-69
2022/07/25 02:04:36;;;;;;;12.43;11.05;;;21.60;99.90;;;;;;3059913;19;20332;-69
2022/07/25 02:05:39;;;;;;;14.02;10.73;;;21.40;99.90;;;;;;3059516;19;20015;-69
2022/07/25 02:06:41;;;;;;;14.98;10.68;;;21.40;99.90;;;;;;3060805;19;20022;-69
2022/07/25 02:07:47;;;;;;;16.52;11.88;;;21.50;99.90;;;;;;3058241;19;20014;-69
2022/07/25 02:08:48;;;;;;;13.38;11.00;;;21.50;99.90;;;;;;3059989;19;20021;-69
2022/07/25 02:09:52;;;;;;;14.65;11.38;;;21.30;99.90;;;;;;3059533;19;20013;-69
2022/07/25 02:10:54;;;;;;;14.25;11.52;;;21.40;99.90;;;;;;3059779;19;20014;-69
2022/07/25 02:11:58;;;;;;;16.02;11.80;;;21.30;99.90;;;;;;3060048;19;20015;-69
2022/07/25 02:13:00;;;;;;;16.92;11.57;;;21.30;99.90;;;;;;3059639;19;20046;-69
2022/07/25 02:14:04;;;;;;;16.02;11.80;;;21.40;99.90;;;;;;3059395;19;20022;-70
2022/07/25 02:15:06;;;;;;;14.25;11.82;;;21.40;99.90;;;;;;3059939;19;21082;-69
2022/07/25 02:16:10;;;;;;;13.90;11.52;;;21.40;99.90;;;;;;3059125;19;20025;-69
2022/07/25 02:17:11;;;;;;;17.98;12.07;;;21.40;99.90;;;;;;3058595;19;20010;-69
2022/07/25 02:18:15;;;;;;;14.85;12.30;;;21.30;99.90;;;;;;3057914;19;20031;-69
2022/07/25 02:19:17;;;;;;;14.73;11.68;;;21.30;99.90;;;;;;3059464;19;19999;-68
2022/07/25 02:20:21;;;;;;;14.73;11.32;;;21.10;99.90;;;;;;3058705;19;20023;-69
2022/07/25 02:21:25;;;;;;;14.63;11.55;;;21.10;99.90;;;;;;3059705;19;20010;-69
2022/07/25 02:22:26;;;;;;;15.27;10.95;;;21.00;99.90;;;;;;3059216;19;20022;-69
2022/07/25 02:23:32;;;;;;;15.07;11.40;;;21.20;99.90;;;;;;3059677;19;20476;-69
2022/07/25 02:24:35;;;;;;;13.50;11.48;;;21.20;99.90;;;;;;3060242;19;20038;-69
2022/07/25 02:25:40;;;;;;;15.93;11.23;;;21.20;99.90;;;;;;3058575;19;20003;-69
2022/07/25 02:26:41;;;;;;;14.70;11.27;;;21.10;99.90;;;;;;3057511;19;20042;-70
2022/07/25 02:27:45;;;;;;;14.48;11.73;;;21.10;99.90;;;;;;3052697;19;20034;-69
2022/07/25 02:28:48;;;;;;;13.63;10.48;;;21.20;99.90;;;;;;3048843;19;20029;-69
2022/07/25 02:29:52;;;;;;;12.82;11.23;;;21.40;99.90;;;;;;3054259;19;20031;-69
2022/07/25 02:30:53;;;;;;;16.33;12.23;;;21.30;99.90;;;;;;3059170;19;20007;-69
2022/07/25 02:31:57;;;;;;;14.63;11.80;;;21.30;99.90;;;;;;3059617;19;20010;-69
2022/07/25 02:32:59;;;;;;;14.45;11.52;;;21.10;99.90;;;;;;3059741;19;20019;-69
2022/07/25 02:34:03;;;;;;;13.10;11.25;;;21.40;99.90;;;;;;3059301;19;20356;-70
2022/07/25 02:35:05;;;;;;;17.35;11.77;;;21.30;99.90;;;;;;3059119;19;20038;-70
2022/07/25 02:36:11;;;;;;;14.52;12.23;;;21.20;99.90;;;;;;3057577;19;20014;-69
2022/07/25 02:37:12;;;;;;;14.95;11.65;;;21.20;99.90;;;;;;3057326;19;20973;-69
2022/07/25 02:38:18;;;;;;;14.82;10.95;;;21.20;99.90;;;;;;3059465;19;20007;-69
2022/07/25 02:39:22;;;;;;;14.55;12.18;;;21.10;99.90;;;;;;3057872;19;20034;-69
2022/07/25 02:40:26;;;;;;;15.68;12.07;;;21.10;99.90;;;;;;3060554;19;20022;-69
2022/07/25 02:41:27;;;;;;;15.80;12.43;;;21.10;99.90;;;;;;3059032;19;20066;-69
2022/07/25 02:42:31;;;;;;;13.90;12.07;;;21.10;99.90;;;;;;3061471;19;20014;-69
2022/07/25 02:43:32;;;;;;;16.77;12.05;;;21.20;99.90;;;;;;3059090;19;20081;-69
2022/07/25 02:44:36;;;;;;;14.63;12.55;;;21.00;99.90;;;;;;3059079;19;20464;-69
2022/07/25 02:45:38;;;;;;;16.65;12.35;;;21.10;99.90;;;;;;3061495;19;20007;-69
2022/07/25 02:46:42;;;;;;;16.80;12.57;;;21.20;99.90;;;;;;3065100;19;20007;-69
2022/07/25 02:47:43;;;;;;;15.95;12.48;;;20.90;99.90;;;;;;3062601;19;20018;-68
2022/07/25 02:48:47;;;;;;;14.82;11.90;;;21.10;99.90;;;;;;3062329;19;20014;-69
2022/07/25 02:49:48;;;;;;;16.95;12.30;;;21.00;99.90;;;;;;3062427;19;20018;-69
2022/07/25 02:50:52;;;;;;;15.43;12.13;;;21.10;99.90;;;;;;3062464;19;20014;-69
2022/07/25 02:51:53;;;;;;;15.27;12.10;;;20.90;99.90;;;;;;3061935;19;20007;-69
2022/07/25 02:52:57;;;;;;;15.82;12.40;;;21.00;99.90;;;;;;3059615;19;20014;-69
2022/07/25 02:53:58;;;;;;;15.80;12.55;;;20.70;99.90;;;;;;3058610;19;20455;-69
2022/07/25 02:55:05;;;;;;;15.00;12.82;;;20.80;99.90;;;;;;3061590;19;20048;-68
2022/07/25 02:56:07;;;;;;;15.13;12.10;;;20.80;99.90;;;;;;3059313;19;20031;-69
2022/07/25 02:57:11;;;;;;;;;;;21.00;99.90;;;;;;3059902;19;20030;-69
2022/07/25 02:58:13;;;;;;;15.45;11.63;;;20.90;99.90;;;;;;3059851;19;19919;-69
2022/07/25 02:59:17;;;;;;;20.77;13.57;;;20.80;99.90;;;;;;3059973;19;20547;-69
2022/07/25 03:00:19;;;;;;;15.10;12.20;;;20.70;99.90;;;;;;3059046;19;20372;-69
2022/07/25 03:01:23;;;;;;;17.70;12.52;;;20.80;99.90;;;;;;3060538;19;20074;-69
2022/07/25 03:02:24;;;;;;;15.07;12.15;;;20.90;99.90;;;;;;3059087;19;20006;-69
2022/07/25 03:03:30;;;;;;;16.08;12.43;;;20.90;99.90;;;;;;3058814;19;20027;-69
2022/07/25 03:04:32;;;;;;;16.83;11.80;;;20.90;99.90;;;;;;3059046;19;20003;-68
2022/07/25 03:05:36;;;;;;;14.02;11.98;;;20.90;99.90;;;;;;3058732;19;20014;-69
2022/07/25 03:06:37;;;;;;;15.07;12.70;;;20.80;99.90;;;;;;3057530;19;20364;-69
2022/07/25 03:07:42;;;;;;;15.35;12.00;;;20.90;99.90;;;;;;3057686;19;20014;-70
2022/07/25 03:08:43;;;;;;;14.90;12.25;;;20.70;99.90;;;;;;3058710;19;20475;-69
2022/07/25 03:09:47;;;;;;;15.95;12.63;;;20.90;99.90;;;;;;3058267;19;20019;-69
2022/07/25 03:10:51;;;;;;;15.40;11.98;;;20.90;99.90;;;;;;3059482;19;20014;-69
2022/07/25 03:11:55;;;;;;;18.10;12.68;;;21.00;99.90;;;;;;3059497;19;20037;-69
2022/07/25 03:12:56;;;;;;;14.27;11.80;;;20.80;99.90;;;;;;3058326;19;20019;-70
2022/07/25 03:14:00;;;;;;;14.32;12.20;;;20.90;99.90;;;;;;3056553;19;20022;-69
2022/07/25 03:15:02;;;;;;;16.88;11.93;;;20.90;99.90;;;;;;3058200;19;20022;-69
2022/07/25 03:16:07;;;;;;;17.02;12.27;;;20.80;99.90;;;;;;3059646;19;20034;-68
2022/07/25 03:17:08;;;;;;;14.88;12.15;;;20.80;99.90;;;;;;3057468;19;20025;-70
2022/07/25 03:18:12;;;;;;;18.02;13.15;;;20.90;99.90;;;;;;3059288;19;20115;-69
2022/07/25 03:19:13;;;;;;;16.55;12.18;;;20.80;99.90;;;;;;3058673;19;20010;-69
2022/07/25 03:20:17;;;;;;;16.88;12.65;;;20.80;99.90;;;;;;3058459;19;20368;-69
2022/07/25 03:21:19;;;;;;;14.75;12.52;;;20.80;99.90;;;;;;3058958;19;20014;-69
2022/07/25 03:22:23;;;;;;;15.50;12.48;;;21.00;99.90;;;;;;3058489;19;20012;-69
2022/07/25 03:23:26;;;;;;;15.55;12.57;;;20.80;99.90;;;;;;3058708;19;20007;-69
2022/07/25 03:24:30;;;;;;;15.65;11.90;;;20.60;99.90;;;;;;3058262;19;20015;-69
2022/07/25 03:25:31;;;;;;;15.10;12.13;;;20.90;99.90;;;;;;3058811;19;20002;-69
2022/07/25 03:26:38;;;;;;;15.93;12.50;;;20.60;99.90;;;;;;3057815;19;20018;-69
2022/07/25 03:27:39;;;;;;;18.60;12.15;;;20.80;99.90;;;;;;3059187;19;20031;-69
2022/07/25 03:28:43;;;;;;;14.82;11.80;;;20.80;99.90;;;;;;3058255;19;20027;-69
2022/07/25 03:29:44;;;;;;;15.43;12.20;;;20.70;99.90;;;;;;3056608;19;20350;-70
2022/07/25 03:30:48;;;;;;;17.20;12.50;;;20.90;99.90;;;;;;3057895;19;20021;-69
2022/07/25 03:31:49;;;;;;;16.08;12.43;;;20.70;99.90;;;;;;3059538;19;20018;-70
2022/07/25 03:32:53;;;;;;;16.63;12.98;;;20.80;99.90;;;;;;3058034;19;20014;-69
2022/07/25 03:33:55;;;;;;;13.80;11.52;;;20.80;99.90;;;;;;3057695;19;20508;-69
2022/07/25 03:34:59;;;;;;;;;;;20.70;99.90;;;;;;3059372;19;20015;-69
2022/07/25 03:36:00;;;;;;;12.50;10.88;;;20.70;99.90;;;;;;3058394;19;19922;-69
2022/07/25 03:37:05;;;;;;;14.57;11.32;;;20.80;99.90;;;;;;3058463;19;20376;-69
2022/07/25 03:38:06;;;;;;;14.60;11.90;;;20.70;99.90;;;;;;3058412;19;20021;-69
2022/07/25 03:39:10;;;;;;;14.23;11.73;;;20.60;99.90;;;;;;3058317;19;20007;-69
2022/07/25 03:40:13;;;;;;;16.10;12.15;;;20.70;99.90;;;;;;3057016;19;20018;-68
2022/07/25 03:41:17;;;;;;;14.63;12.23;;;20.80;99.90;;;;;;3058051;19;20518;-69
2022/07/25 03:42:22;;;;;;;14.68;12.13;;;20.40;99.90;;;;;;3058215;19;20482;-69
2022/07/25 03:43:26;;;;;;;14.57;11.95;;;20.40;99.90;;;;;;3058209;19;20391;-69
2022/07/25 03:44:27;;;;;;;13.93;12.13;;;20.60;99.90;;;;;;3058684;19;20011;-69
2022/07/25 03:45:31;;;;;;;13.02;11.38;;;20.80;99.90;;;;;;3057667;19;20063;-69
2022/07/25 03:46:33;;;;;;;14.43;11.85;;;20.70;99.90;;;;;;3059591;19;20099;-69
2022/07/25 03:47:37;;;;;;;13.18;11.77;;;20.60;99.90;;;;;;3058884;19;20011;-69
2022/07/25 03:48:38;;;;;;;15.18;11.77;;;20.90;99.90;;;;;;3058393;19;20042;-69
2022/07/25 03:49:42;;;;;;;15.75;12.35;;;20.70;99.90;;;;;;3058469;19;20015;-70
2022/07/25 03:50:43;;;;;;;15.75;12.43;;;20.70;99.90;;;;;;3057910;19;20484;-69
2022/07/25 03:51:47;;;;;;;16.30;11.93;;;20.80;99.90;;;;;;3058433;19;20480;-69
2022/07/25 03:52:48;;;;;;;16.55;12.13;;;20.80;99.90;;;;;;3058156;19;20018;-69
2022/07/25 03:54:05;;;;;;;14.25;11.88;;;20.60;99.90;;;;;;3058226;19;20011;-69
2022/07/25 03:55:08;;;;;;;13.10;11.35;;;20.50;99.90;;;;;;3057327;19;20071;-69
2022/07/25 03:56:12;;;;;;;13.07;11.30;;;20.50;99.90;;;;;;3057142;19;20010;-69
2022/07/25 03:57:16;;;;;;;15.10;11.93;;;20.50;99.90;;;;;;3058174;19;20014;-69
2022/07/25 03:58:20;;;;;;;13.93;12.00;;;20.60;99.90;;;;;;3057873;19;20495;-69
2022/07/25 03:59:24;;;;;;;15.40;11.70;;;20.50;99.90;;;;;;3057286;19;20022;-70
2022/07/25 04:00:25;;;;;;;15.30;11.68;;;20.70;99.90;;;;;;3056338;19;20019;-69
2022/07/25 04:01:29;;;;;;;;;;;20.30;99.90;;;;;;3058906;19;20487;-69
2022/07/25 04:02:30;;;;;;;15.10;12.52;;;20.60;99.90;;;;;;3057951;19;19923;-69
2022/07/25 04:03:35;;;;;;;15.63;12.07;;;20.60;99.90;;;;;;3057663;19;20018;-69
2022/07/25 04:04:39;;;;;;;14.82;11.23;;;20.60;99.90;;;;;;3057921;19;20019;-69
2022/07/25 04:05:44;;;;;;;16.02;11.90;;;20.50;99.90;;;;;;3057909;19;20324;-69
2022/07/25 04:06:45;;;;;;;15.52;11.95;;;20.60;99.90;;;;;;3058358;19;20472;-69
2022/07/25 04:07:51;;;;;;;13.15;11.52;;;20.60;99.90;;;;;;3059008;19;20011;-69
2022/07/25 04:08:52;;;;;;;15.60;11.75;;;20.60;99.90;;;;;;3057766;19;20352;-69
2022/07/25 04:09:56;;;;;;;;;;;20.50;99.90;;;;;;3057284;19;20019;-68
2022/07/25 04:10:57;;;;;;;15.52;11.52;;;20.70;99.90;;;;;;3058139;19;19915;-69
2022/07/25 04:12:01;;;;;;;15.68;11.73;;;20.50;99.90;;;;;;3059403;19;20011;-70
2022/07/25 04:13:02;;;;;;;14.98;11.50;;;20.60;99.90;;;;;;3057364;19;20061;-69
2022/07/25 04:14:09;;;;;;;14.80;11.48;;;20.50;99.90;;;;;;3058160;19;20011;-68
2022/07/25 04:15:14;;;;;;;13.27;11.25;;;20.40;99.90;;;;;;3053815;19;20095;-68
2022/07/25 04:16:15;;;;;;;14.90;11.52;;;20.50;99.90;;;;;;3058238;19;20014;-69
2022/07/25 04:17:19;;;;;;;12.88;11.00;;;20.50;99.90;;;;;;3057890;19;20025;-69
2022/07/25 04:18:20;;;;;;;14.98;11.52;;;20.50;99.90;;;;;;3059288;19;20036;-69
2022/07/25 04:19:24;;;;;;;12.65;10.63;;;20.50;99.90;;;;;;3057935;19;20019;-69
2022/07/25 04:20:26;;;;;;;14.38;11.43;;;20.40;99.90;;;;;;3057534;19;20471;-69
2022/07/25 04:21:30;;;;;;;13.20;11.80;;;20.50;99.90;;;;;;3057908;19;20017;-69
2022/07/25 04:22:31;;;;;;;13.95;12.15;;;20.40;99.90;;;;;;3055954;19;20014;-69
2022/07/25 04:23:35;;;;;;;15.27;12.15;;;20.50;99.90;;;;;;3058031;19;20018;-69
2022/07/25 04:24:37;;;;;;;15.27;12.40;;;20.60;99.90;;;;;;3057762;19;20010;-69
2022/07/25 04:25:41;;;;;;;16.23;12.40;;;20.40;99.90;;;;;;3058744;19;20038;-69
2022/07/25 04:26:42;;;;;;;14.85;11.93;;;20.20;99.90;;;;;;3057751;19;20544;-69
2022/07/25 04:27:46;;;;;;;14.77;11.90;;;20.50;99.90;;;;;;3058434;19;20015;-69
2022/07/25 04:28:48;;;;;;;14.85;11.85;;;20.30;99.90;;;;;;3059810;19;20014;-69
2022/07/25 04:29:55;;;;;;;14.13;11.40;;;20.30;99.90;;;;;;3057233;19;20078;-70
2022/07/25 04:30:56;;;;;;;15.35;11.98;;;20.30;99.90;;;;;;3057941;19;19998;-70
2022/07/25 04:32:00;;;;;;;16.83;12.73;;;20.40;99.90;;;;;;3057471;19;20490;-69
2022/07/25 04:33:01;;;;;;;15.20;12.25;;;20.30;99.90;;;;;;3057742;19;20094;-69
2022/07/25 04:34:05;;;;;;;18.25;12.57;;;20.40;99.90;;;;;;3059412;19;20011;-69
2022/07/25 04:35:08;;;;;;;16.85;12.25;;;20.30;99.90;;;;;;3057802;19;20018;-69
2022/07/25 04:36:12;;;;;;;15.07;12.32;;;20.30;99.90;;;;;;3054478;19;20041;-69
2022/07/25 04:37:13;;;;;;;15.90;13.30;;;20.30;99.90;;;;;;3056396;19;20030;-70
2022/07/25 04:38:18;;;;;;;15.30;11.80;;;20.20;99.90;;;;;;3057632;19;20042;-69
2022/07/25 04:39:19;;;;;;;16.40;12.55;;;20.40;99.90;;;;;;3058356;19;20011;-69
2022/07/25 04:40:23;;;;;;;15.05;12.18;;;20.30;99.90;;;;;;3054932;19;20082;-68
2022/07/25 04:41:24;;;;;;;14.75;12.23;;;20.50;99.90;;;;;;3059483;19;20018;-70
2022/07/25 04:42:29;;;;;;;14.05;11.98;;;20.30;99.90;;;;;;3054949;19;20023;-69
2022/07/25 04:43:31;;;;;;;13.23;11.30;;;20.30;99.90;;;;;;3055091;19;20025;-69
2022/07/25 04:44:34;;;;;;;15.05;11.73;;;20.20;99.90;;;;;;3058989;19;20021;-69
2022/07/25 04:45:39;;;;;;;14.90;11.95;;;20.30;99.90;;;;;;3058240;19;20018;-69
2022/07/25 04:46:42;;;;;;;14.52;11.45;;;20.30;99.90;;;;;;3057597;19;20014;-69
2022/07/25 04:47:44;;;;;;;16.58;12.30;;;20.40;99.90;;;;;;3057668;19;20014;-69
2022/07/25 04:48:48;;;;;;;17.42;11.65;;;20.40;99.90;;;;;;3058112;19;20025;-69
2022/07/25 04:49:49;;;;;;;14.75;11.88;;;20.60;99.90;;;;;;3058691;19;20486;-69
2022/07/25 04:50:54;;;;;;;14.88;12.32;;;20.50;99.90;;;;;;3057449;19;20475;-69
2022/07/25 04:51:55;;;;;;;15.60;12.18;;;20.60;99.90;;;;;;3057037;19;20057;-69
2022/07/25 04:52:59;;;;;;;14.60;12.23;;;20.50;99.90;;;;;;3057757;19;20019;-69
2022/07/25 04:54:00;;;;;;;14.27;11.43;;;20.50;99.90;;;;;;3057822;19;20105;-69
2022/07/25 04:55:05;;;;;;;14.30;12.25;;;20.60;99.90;;;;;;3057613;19;20026;-69
2022/07/25 04:56:06;;;;;;;16.92;12.48;;;20.50;99.90;;;;;;3057437;19;20026;-69
2022/07/25 04:57:11;;;;;;;;;;;20.50;99.90;;;;;;3057756;19;20018;-69
2022/07/25 04:58:12;;;;;;;14.05;11.32;;;20.50;99.90;;;;;;3056121;19;19922;-69
2022/07/25 04:59:16;;;;;;;16.75;12.05;;;20.40;99.90;;;;;;3058577;19;20019;-69
2022/07/25 05:00:17;;;;;;;16.25;12.20;;;20.60;99.90;;;;;;3055491;19;20021;-68
2022/07/25 05:01:24;;;;;;;14.38;11.65;;;20.50;99.90;;;;;;3060845;19;20375;-69
2022/07/25 05:02:25;;;;;;;15.48;12.20;;;20.80;99.90;;;;;;3061031;19;20019;-69
2022/07/25 05:03:29;;;;;;;15.65;12.05;;;20.60;99.90;;;;;;3060196;19;20036;-69
2022/07/25 05:04:31;;;;;;;15.02;11.00;;;20.70;99.90;;;;;;3060143;19;20007;-69
2022/07/25 05:05:35;;;;;;;15.40;11.88;;;20.90;99.90;;;;;;3060519;19;20010;-69
2022/07/25 05:06:36;;;;;;;15.48;12.02;;;20.90;99.90;;;;;;3060936;19;20026;-69
2022/07/25 05:07:40;;;;;;;14.50;11.07;;;20.70;99.90;;;;;;3059648;19;20014;-69
2022/07/25 05:08:41;;;;;;;15.02;11.50;;;20.90;99.90;;;;;;3060320;19;20019;-68
2022/07/25 05:09:46;;;;;;;13.60;11.07;;;21.00;99.90;;;;;;3060473;19;20006;-69
2022/07/25 05:10:49;;;;;;;14.32;11.15;;;20.90;99.90;;;;;;3060134;19;20010;-69
2022/07/25 05:11:51;;;;;;;13.90;11.10;;;20.90;99.90;;;;;;3060398;19;20023;-69
2022/07/25 05:12:55;;;;;;;15.63;11.13;;;20.50;99.90;;;;;;3060266;19;20471;-68
2022/07/25 05:13:56;;;;;;;14.68;11.15;;;20.90;99.90;;;;;;3059592;19;20030;-69
2022/07/25 05:15:00;;;;;;;14.90;11.10;;;21.00;99.90;;;;;;3061304;19;20039;-69
2022/07/25 05:16:02;;;;;;;16.73;11.65;;;21.10;99.90;;;;;;3060539;19;20006;-69
2022/07/25 05:17:08;;;;;;;14.05;11.27;;;21.10;99.90;;;;;;3059420;19;20003;-69
2022/07/25 05:18:12;;;;;;;15.45;11.32;;;21.20;99.90;;;;;;3059836;19;20048;-69
2022/07/25 05:19:14;;;;;;;14.18;11.70;;;21.00;99.90;;;;;;3060658;19;20372;-69
2022/07/25 05:20:18;;;;;;;17.73;10.77;;;21.00;99.90;;;;;;3060356;19;20011;-69
2022/07/25 05:21:22;;;;;;;12.73;11.15;;;20.90;99.90;;;;;;3060329;19;20037;-69
2022/07/25 05:22:23;;;;;;;17.15;12.02;;;21.10;99.90;;;;;;3059956;19;20488;-69